createdAt,value
2018-04-07T00:01:58.345Z,8.90
2018-04-07T00:04:25.821Z,8.70
2018-04-07T00:06:53.499Z,8.70
2018-04-07T00:09:20.949Z,8.60
2018-04-07T00:11:48.483Z,8.60
2018-04-07T00:14:16.034Z,8.50
2018-04-07T00:16:43.483Z,8.40
2018-04-07T00:19:10.987Z,8.30
2018-04-07T00:21:39.239Z,8.10
2018-04-07T00:24:08.208Z,8.10
2018-04-07T00:26:35.691Z,8.10
2018-04-07T00:29:03.157Z,8.10
2018-04-07T00:31:30.912Z,8.10
2018-04-07T00:33:58.596Z,8.10
2018-04-07T00:36:26.828Z,8.00
2018-04-07T00:38:54.515Z,8.00
2018-04-07T00:41:21.971Z,8.00
2018-04-07T00:43:49.433Z,8.00
2018-04-07T00:46:16.987Z,7.90
2018-04-07T00:48:44.655Z,7.90
2018-04-07T00:51:12.132Z,7.80
2018-04-07T00:53:39.588Z,7.70
2018-04-07T00:56:07.048Z,7.60
2018-04-07T00:58:34.516Z,7.50
2018-04-07T01:01:01.963Z,7.40
2018-04-07T01:03:29.412Z,7.20
2018-04-07T01:05:56.890Z,7.30
2018-04-07T01:08:24.509Z,7.30
2018-04-07T01:10:51.992Z,7.30
2018-04-07T01:13:33.976Z,7.30
2018-04-07T01:16:01.902Z,7.20
2018-04-07T01:18:29.436Z,7.10
2018-04-07T01:20:56.884Z,7.10
2018-04-07T01:23:24.425Z,7.00
2018-04-07T01:25:51.876Z,6.90
2018-04-07T01:28:19.437Z,7.00
2018-04-07T01:30:46.896Z,6.90
2018-04-07T01:33:14.433Z,6.90
2018-04-07T01:35:42.020Z,6.80
2018-04-07T01:38:09.480Z,6.70
2018-04-07T01:40:36.931Z,6.60
2018-04-07T01:43:04.590Z,6.60
2018-04-07T01:45:32.039Z,6.60
2018-04-07T01:47:59.620Z,6.50
2018-04-07T01:50:27.068Z,6.50
2018-04-07T01:52:54.521Z,6.60
2018-04-07T01:55:22.304Z,6.60
2018-04-07T01:57:49.763Z,6.60
2018-04-07T02:00:17.525Z,6.40
2018-04-07T02:02:45.005Z,6.40
2018-04-07T02:05:12.449Z,6.30
2018-04-07T02:07:39.913Z,6.30
2018-04-07T02:10:07.820Z,6.30
2018-04-07T02:12:35.379Z,6.30
2018-04-07T02:15:02.836Z,6.20
2018-04-07T02:17:30.288Z,6.30
2018-04-07T02:19:57.764Z,6.20
2018-04-07T02:22:25.216Z,6.20
2018-04-07T02:24:52.676Z,6.20
2018-04-07T02:27:20.195Z,6.30
2018-04-07T02:29:47.652Z,6.30
2018-04-07T02:32:15.307Z,6.30
2018-04-07T02:34:42.772Z,6.20
2018-04-07T02:37:10.224Z,6.20
2018-04-07T02:39:37.683Z,6.20
2018-04-07T02:42:05.148Z,6.20
2018-04-07T02:44:32.600Z,6.20
2018-04-07T02:47:00.132Z,6.20
2018-04-07T02:49:27.590Z,6.20
2018-04-07T02:51:55.368Z,6.00
2018-04-07T02:54:22.825Z,5.90
2018-04-07T02:56:50.288Z,5.70
2018-04-07T02:59:17.879Z,5.80
2018-04-07T03:01:45.509Z,5.80
2018-04-07T03:04:13.131Z,5.90
2018-04-07T03:06:40.745Z,5.80
2018-04-07T03:09:08.195Z,5.80
2018-04-07T03:11:35.651Z,5.80
2018-04-07T03:14:03.119Z,5.80
2018-04-07T03:16:30.564Z,5.80
2018-04-07T03:18:58.328Z,5.90
2018-04-07T03:21:25.784Z,6.00
2018-04-07T03:23:53.243Z,5.90
2018-04-07T03:26:20.701Z,5.80
2018-04-07T03:28:48.156Z,5.80
2018-04-07T03:31:15.923Z,5.70
2018-04-07T03:33:43.379Z,5.70
2018-04-07T03:36:10.852Z,5.70
2018-04-07T03:38:38.605Z,5.70
2018-04-07T03:41:06.372Z,5.60
2018-04-07T03:43:33.835Z,5.50
2018-04-07T03:46:01.283Z,5.40
2018-04-07T03:48:28.740Z,5.30
2018-04-07T03:50:56.192Z,5.30
2018-04-07T03:53:23.664Z,5.30
2018-04-07T03:55:51.124Z,5.30
2018-04-07T03:58:18.584Z,5.30
2018-04-07T04:00:46.076Z,5.20
2018-04-07T04:03:13.707Z,5.20
2018-04-07T04:05:41.171Z,5.20
2018-04-07T04:08:08.712Z,5.20
2018-04-07T04:10:36.176Z,5.20
2018-04-07T04:13:03.629Z,5.20
2018-04-07T04:15:31.087Z,5.10
2018-04-07T04:17:58.557Z,5.10
2018-04-07T04:20:26.320Z,5.10
2018-04-07T04:22:53.768Z,5.10
2018-04-07T04:25:21.224Z,5.10
2018-04-07T04:27:48.992Z,5.00
2018-04-07T04:30:17.064Z,5.10
2018-04-07T04:32:44.507Z,5.10
2018-04-07T04:35:11.960Z,5.10
2018-04-07T04:37:39.444Z,5.00
2018-04-07T04:40:06.896Z,5.00
2018-04-07T04:42:34.664Z,4.90
2018-04-07T04:45:02.316Z,4.90
2018-04-07T04:47:29.785Z,4.90
2018-04-07T04:49:57.344Z,4.80
2018-04-07T04:52:24.801Z,4.80
2018-04-07T04:54:52.261Z,4.80
2018-04-07T04:57:19.943Z,4.70
2018-04-07T04:59:47.484Z,4.70
2018-04-07T05:02:14.951Z,4.70
2018-04-07T05:04:42.523Z,4.70
2018-04-07T05:07:10.758Z,4.70
2018-04-07T05:09:38.221Z,4.70
2018-04-07T05:12:05.696Z,4.80
2018-04-07T05:14:33.164Z,4.70
2018-04-07T05:17:00.849Z,4.60
2018-04-07T05:19:29.075Z,4.70
2018-04-07T05:21:56.572Z,4.80
2018-04-07T05:24:24.820Z,5.00
2018-04-07T05:26:52.317Z,4.90
2018-04-07T05:29:19.916Z,5.00
2018-04-07T05:31:47.520Z,5.10
2018-04-07T05:34:15.028Z,5.00
2018-04-07T05:36:42.495Z,5.10
2018-04-07T05:39:09.964Z,5.20
2018-04-07T05:41:37.451Z,5.20
2018-04-07T05:44:05.736Z,5.20
2018-04-07T05:46:33.225Z,5.20
2018-04-07T05:49:00.734Z,5.20
2018-04-07T05:51:28.216Z,5.30
2018-04-07T05:53:56.437Z,5.60
2018-04-07T05:56:23.889Z,5.60
2018-04-07T05:58:51.344Z,5.80
2018-04-07T06:01:18.808Z,5.90
2018-04-07T06:03:46.267Z,5.90
2018-04-07T06:06:13.725Z,6.10
2018-04-07T06:08:41.175Z,6.20
2018-04-07T06:11:08.641Z,6.40
2018-04-07T06:13:36.196Z,6.40
2018-04-07T06:16:03.654Z,6.50
2018-04-07T06:18:31.111Z,6.60
2018-04-07T06:20:58.573Z,6.60
2018-04-07T06:23:26.030Z,6.80
2018-04-07T06:25:53.649Z,6.90
2018-04-07T06:28:21.192Z,7.00
2018-04-07T06:30:50.164Z,7.40
2018-04-07T06:33:17.623Z,7.30
2018-04-07T06:35:45.078Z,7.50
2018-04-07T06:38:12.557Z,7.50
2018-04-07T06:40:40.009Z,7.70
2018-04-07T06:43:07.471Z,7.80
2018-04-07T06:45:35.237Z,7.90
2018-04-07T06:48:02.742Z,8.00
2018-04-07T06:50:30.380Z,8.00
2018-04-07T06:52:57.840Z,8.10
2018-04-07T06:55:25.383Z,8.20
2018-04-07T06:57:52.895Z,8.30
2018-04-07T07:00:20.600Z,8.40
2018-04-07T07:02:48.061Z,8.60
2018-04-07T07:05:15.523Z,8.70
2018-04-07T07:07:43.195Z,8.80
2018-04-07T07:10:10.741Z,9.00
2018-04-07T07:12:38.365Z,9.20
2018-04-07T07:15:05.828Z,9.30
2018-04-07T07:17:33.349Z,9.40
2018-04-07T07:20:00.808Z,9.40
2018-04-07T07:22:28.276Z,9.70
2018-04-07T07:24:55.756Z,9.70
2018-04-07T07:27:23.228Z,10.00
2018-04-07T07:29:50.708Z,10.10
2018-04-07T07:32:18.172Z,10.30
2018-04-07T07:34:45.658Z,10.50
2018-04-07T07:37:13.340Z,10.60
2018-04-07T07:39:40.812Z,10.90
2018-04-07T07:42:08.333Z,11.10
2018-04-07T07:44:36.071Z,11.20
2018-04-07T07:47:03.836Z,11.40
2018-04-07T07:49:31.456Z,11.50
2018-04-07T07:51:59.072Z,11.70
2018-04-07T07:54:26.563Z,11.80
2018-04-07T07:56:54.133Z,11.90
2018-04-07T07:59:21.591Z,12.00
2018-04-07T08:01:49.064Z,12.10
2018-04-07T08:04:16.539Z,12.30
2018-04-07T08:06:44.095Z,12.50
2018-04-07T08:09:11.568Z,12.50
2018-04-07T08:11:39.344Z,12.80
2018-04-07T08:14:07.108Z,13.00
2018-04-07T08:16:34.869Z,13.00
2018-04-07T08:19:02.532Z,13.30
2018-04-07T08:21:30.008Z,13.40
2018-04-07T08:23:57.550Z,13.70
2018-04-07T08:26:25.331Z,14.00
2018-04-07T08:28:53.009Z,14.10
2018-04-07T08:31:20.472Z,14.30
2018-04-07T08:33:47.936Z,14.50
2018-04-07T08:36:15.411Z,14.70
2018-04-07T08:38:42.872Z,14.80
2018-04-07T08:41:10.341Z,14.90
2018-04-07T08:43:37.802Z,15.00
2018-04-07T08:46:05.272Z,15.20
2018-04-07T08:48:32.748Z,15.40
2018-04-07T08:51:00.244Z,15.50
2018-04-07T08:53:27.749Z,15.70
2018-04-07T08:55:55.275Z,15.80
2018-04-07T08:58:22.798Z,15.90
2018-04-07T09:00:50.271Z,16.10
2018-04-07T09:03:17.745Z,16.20
2018-04-07T09:05:45.240Z,16.40
2018-04-07T09:08:12.715Z,16.60
2018-04-07T09:10:41.718Z,18.40
2018-04-07T09:13:09.471Z,18.40
2018-04-07T09:15:38.431Z,22.70
2018-04-07T09:18:05.889Z,22.80
2018-04-07T09:20:33.356Z,24.30
2018-04-07T09:23:00.851Z,25.50
2018-04-07T09:25:28.320Z,25.50
2018-04-07T09:27:55.988Z,25.10
2018-04-07T09:30:23.447Z,24.70
2018-04-07T09:32:50.924Z,24.70
2018-04-07T09:35:18.381Z,25.60
2018-04-07T09:37:45.873Z,26.20
2018-04-07T09:40:13.360Z,26.30
2018-04-07T09:42:40.827Z,27.00
2018-04-07T09:45:08.296Z,27.80
2018-04-07T09:47:35.755Z,28.30
2018-04-07T09:50:03.547Z,28.30
2018-04-07T09:52:31.029Z,28.70
2018-04-07T09:54:58.726Z,28.50
2018-04-07T09:57:26.492Z,27.90
2018-04-07T09:59:53.963Z,27.00
2018-04-07T10:02:21.447Z,26.50
2018-04-07T10:04:49.087Z,27.40
2018-04-07T10:07:16.552Z,27.50
2018-04-07T10:09:44.078Z,27.10
2018-04-07T10:12:11.538Z,27.20
2018-04-07T10:14:39.000Z,27.50
2018-04-07T10:17:06.520Z,27.80
2018-04-07T10:19:34.221Z,28.40
2018-04-07T10:22:01.691Z,29.60
2018-04-07T10:24:29.304Z,31.10
2018-04-07T10:26:56.901Z,31.30
2018-04-07T10:29:24.365Z,31.80
2018-04-07T10:31:52.042Z,31.30
2018-04-07T10:34:19.503Z,30.90
2018-04-07T10:36:47.003Z,31.00
2018-04-07T10:39:14.467Z,31.20
2018-04-07T10:41:41.975Z,30.90
2018-04-07T10:44:09.633Z,31.60
2018-04-07T10:46:37.092Z,32.10
2018-04-07T10:49:04.544Z,32.30
2018-04-07T10:51:32.010Z,32.20
2018-04-07T10:53:59.472Z,32.20
2018-04-07T10:56:26.942Z,32.40
2018-04-07T10:58:54.404Z,32.20
2018-04-07T11:01:21.854Z,32.40
2018-04-07T11:03:49.394Z,32.00
2018-04-07T11:06:16.856Z,32.20
2018-04-07T11:08:44.335Z,32.80
2018-04-07T11:11:12.063Z,33.00
2018-04-07T11:13:39.550Z,33.20
2018-04-07T11:16:07.343Z,32.10
2018-04-07T11:18:35.053Z,32.20
2018-04-07T11:21:02.516Z,31.40
2018-04-07T11:23:29.968Z,31.80
2018-04-07T11:25:57.436Z,31.90
2018-04-07T11:28:26.412Z,31.70
2018-04-07T11:30:54.040Z,31.70
2018-04-07T11:33:21.617Z,31.20
2018-04-07T11:35:49.073Z,30.50
2018-04-07T11:38:16.527Z,29.90
2018-04-07T11:40:43.989Z,30.00
2018-04-07T11:43:11.752Z,30.70
2018-04-07T11:45:39.205Z,31.70
2018-04-07T11:48:06.659Z,31.40
2018-04-07T11:50:34.126Z,31.40
2018-04-07T11:53:01.609Z,31.40
2018-04-07T11:55:29.065Z,31.40
2018-04-07T11:57:56.523Z,30.40
2018-04-07T12:00:24.307Z,30.40
2018-04-07T12:02:51.764Z,30.00
2018-04-07T12:05:19.224Z,30.30
2018-04-07T12:07:46.774Z,30.80
2018-04-07T12:10:14.210Z,31.40
2018-04-07T12:12:41.663Z,31.70
2018-04-07T12:15:09.323Z,32.10
2018-04-07T12:17:36.822Z,32.10
2018-04-07T12:20:05.792Z,33.80
2018-04-07T12:22:33.246Z,33.70
2018-04-07T12:25:00.736Z,33.80
2018-04-07T12:27:28.496Z,33.20
2018-04-07T12:29:56.249Z,32.70
2018-04-07T12:32:23.720Z,32.60
2018-04-07T12:34:51.400Z,33.10
2018-04-07T12:37:18.878Z,33.70
2018-04-07T12:39:46.339Z,34.80
2018-04-07T12:42:13.803Z,34.30
2018-04-07T12:44:41.308Z,33.40
2018-04-07T12:47:09.073Z,33.00
2018-04-07T12:49:36.546Z,32.10
2018-04-07T12:52:04.148Z,30.60
2018-04-07T12:54:31.708Z,30.10
2018-04-07T12:56:59.219Z,30.40
2018-04-07T12:59:26.667Z,30.40
2018-04-07T13:01:54.152Z,31.00
2018-04-07T13:04:21.697Z,31.70
2018-04-07T13:06:49.370Z,32.00
2018-04-07T13:09:17.035Z,32.10
2018-04-07T13:11:44.500Z,31.70
2018-04-07T13:14:12.041Z,31.50
2018-04-07T13:16:39.564Z,31.70
2018-04-07T13:19:07.057Z,31.80
2018-04-07T13:21:34.565Z,32.10
2018-04-07T13:24:02.141Z,32.10
2018-04-07T13:26:29.601Z,32.10
2018-04-07T13:28:57.056Z,32.90
2018-04-07T13:31:24.518Z,33.80
2018-04-07T13:33:51.990Z,33.60
2018-04-07T13:36:19.444Z,33.00
2018-04-07T13:38:46.926Z,33.00
2018-04-07T13:41:15.149Z,33.90
2018-04-07T13:43:42.768Z,33.90
2018-04-07T13:46:10.228Z,33.80
2018-04-07T13:48:37.729Z,33.90
2018-04-07T13:51:05.196Z,34.00
2018-04-07T13:53:32.896Z,33.40
2018-04-07T13:56:00.363Z,33.10
2018-04-07T13:58:29.332Z,32.00
2018-04-07T14:00:56.800Z,32.00
2018-04-07T14:03:24.631Z,31.80
2018-04-07T14:05:52.291Z,31.30
2018-04-07T14:08:19.770Z,31.50
2018-04-07T14:10:47.383Z,32.30
2018-04-07T14:13:14.970Z,32.90
2018-04-07T14:15:42.486Z,33.80
2018-04-07T14:18:11.444Z,33.70
2018-04-07T14:20:38.975Z,33.60
2018-04-07T14:23:06.455Z,33.10
2018-04-07T14:25:34.067Z,32.60
2018-04-07T14:28:01.614Z,32.60
2018-04-07T14:30:29.383Z,32.70
2018-04-07T14:32:58.379Z,31.20
2018-04-07T14:35:25.851Z,31.20
2018-04-07T14:37:53.564Z,30.60
2018-04-07T14:40:21.035Z,30.10
2018-04-07T14:42:48.496Z,30.00
2018-04-07T14:45:16.309Z,29.80
2018-04-07T14:47:43.967Z,29.50
2018-04-07T14:50:12.208Z,29.40
2018-04-07T14:52:39.663Z,29.40
2018-04-07T14:55:07.138Z,29.30
2018-04-07T14:57:34.731Z,29.10
2018-04-07T15:00:02.253Z,28.90
2018-04-07T15:02:29.715Z,28.80
2018-04-07T15:04:57.494Z,28.90
2018-04-07T15:07:25.248Z,28.90
2018-04-07T15:09:52.707Z,28.90
2018-04-07T15:12:20.429Z,29.20
2018-04-07T15:14:47.886Z,29.20
2018-04-07T15:17:15.387Z,29.20
2018-04-07T15:19:43.177Z,29.20
2018-04-07T15:22:10.913Z,29.20
2018-04-07T15:24:38.368Z,29.20
2018-04-07T15:27:05.831Z,29.00
2018-04-07T15:29:33.598Z,28.70
2018-04-07T15:32:01.088Z,29.00
2018-04-07T15:34:28.853Z,29.30
2018-04-07T15:36:56.574Z,29.60
2018-04-07T15:39:24.059Z,30.00
2018-04-07T15:41:51.807Z,30.00
2018-04-07T15:44:20.198Z,30.50
2018-04-07T15:46:47.875Z,31.00
2018-04-07T15:49:15.393Z,30.70
2018-04-07T15:51:42.848Z,30.70
2018-04-07T15:54:10.312Z,30.60
2018-04-07T15:56:37.797Z,30.70
2018-04-07T15:59:05.254Z,30.60
2018-04-07T16:01:34.385Z,30.20
2018-04-07T16:04:01.876Z,29.80
2018-04-07T16:06:29.349Z,29.70
2018-04-07T16:08:56.854Z,29.20
2018-04-07T16:11:24.333Z,28.90
2018-04-07T16:13:51.870Z,28.90
2018-04-07T16:16:19.346Z,28.80
2018-04-07T16:18:46.804Z,28.70
2018-04-07T16:21:14.512Z,28.50
2018-04-07T16:23:42.276Z,28.40
2018-04-07T16:26:09.731Z,28.70
2018-04-07T16:28:37.404Z,28.50
2018-04-07T16:31:04.847Z,28.10
2018-04-07T16:33:32.317Z,27.70
2018-04-07T16:36:00.799Z,27.90
2018-04-07T16:38:28.559Z,27.90
2018-04-07T16:40:56.023Z,28.00
2018-04-07T16:43:23.785Z,28.00
2018-04-07T16:45:51.557Z,28.00
2018-04-07T16:48:19.052Z,28.00
2018-04-07T16:50:46.573Z,27.90
2018-04-07T16:53:13.985Z,27.80
2018-04-07T16:55:41.540Z,27.80
2018-04-07T16:58:09.059Z,27.40
2018-04-07T17:00:36.632Z,27.10
2018-04-07T17:03:04.110Z,26.60
2018-04-07T17:05:31.751Z,26.40
2018-04-07T17:07:59.208Z,26.00
2018-04-07T17:10:26.743Z,25.70
2018-04-07T17:12:54.518Z,25.50
2018-04-07T17:15:21.975Z,25.40
2018-04-07T17:17:49.656Z,25.30
2018-04-07T17:20:18.112Z,24.90
2018-04-07T17:22:45.567Z,25.00
2018-04-07T17:25:14.529Z,24.80
2018-04-07T17:27:42.004Z,24.70
2018-04-07T17:30:09.484Z,24.60
2018-04-07T17:32:36.938Z,24.50
2018-04-07T17:35:04.428Z,24.50
2018-04-07T17:37:31.881Z,24.40
2018-04-07T17:39:59.531Z,24.20
2018-04-07T17:42:26.995Z,24.10
2018-04-07T17:44:54.452Z,24.10
2018-04-07T17:47:22.687Z,23.80
2018-04-07T17:49:50.441Z,23.80
2018-04-07T17:52:18.967Z,23.70
2018-04-07T17:54:47.053Z,23.60
2018-04-07T17:57:14.595Z,23.50
2018-04-07T17:59:42.055Z,23.40
2018-04-07T18:02:09.524Z,23.20
2018-04-07T18:04:37.272Z,23.10
2018-04-07T18:07:04.943Z,23.00
2018-04-07T18:09:32.416Z,22.80
2018-04-07T18:11:59.877Z,22.60
2018-04-07T18:14:27.356Z,22.40
2018-04-07T18:16:54.886Z,22.20
2018-04-07T18:19:22.502Z,22.10
2018-04-07T18:21:50.692Z,21.80
2018-04-07T18:24:18.155Z,21.80
2018-04-07T18:26:45.927Z,21.80
2018-04-07T18:29:13.399Z,21.60
2018-04-07T18:31:40.867Z,21.60
2018-04-07T18:34:08.335Z,21.40
2018-04-07T18:36:35.987Z,21.40
2018-04-07T18:39:03.449Z,21.20
2018-04-07T18:41:30.924Z,21.10
2018-04-07T18:43:58.592Z,20.90
2018-04-07T18:46:26.161Z,20.80
2018-04-07T18:48:53.633Z,20.60
2018-04-07T18:51:21.095Z,20.40
2018-04-07T18:53:48.622Z,20.30
2018-04-07T18:56:16.347Z,20.20
2018-04-07T18:58:43.800Z,20.20
2018-04-07T19:01:11.267Z,20.10
2018-04-07T19:03:38.730Z,20.00
2018-04-07T19:06:06.188Z,19.90
2018-04-07T19:08:33.660Z,19.80
2018-04-07T19:11:01.113Z,19.60
2018-04-07T19:13:28.783Z,19.50
2018-04-07T19:15:56.243Z,19.40
2018-04-07T19:18:23.777Z,19.30
2018-04-07T19:20:52.932Z,19.00
2018-04-07T19:23:20.386Z,19.00
2018-04-07T19:25:47.916Z,19.00
2018-04-07T19:28:15.376Z,18.90
2018-04-07T19:30:42.866Z,18.70
2018-04-07T19:33:10.307Z,18.70
2018-04-07T19:35:37.767Z,18.60
2018-04-07T19:38:05.220Z,18.60
2018-04-07T19:40:32.745Z,18.60
2018-04-07T19:43:01.711Z,18.50
2018-04-07T19:45:29.177Z,18.50
2018-04-07T19:47:56.951Z,18.40
2018-04-07T19:50:24.725Z,18.30
2018-04-07T19:52:52.200Z,18.20
2018-04-07T19:55:19.662Z,18.20
2018-04-07T19:57:47.328Z,18.10
2018-04-07T20:00:14.792Z,18.10
2018-04-07T20:02:42.331Z,18.00
2018-04-07T20:05:09.794Z,17.90
2018-04-07T20:07:37.456Z,17.90
2018-04-07T20:10:04.915Z,17.90
2018-04-07T20:12:32.464Z,17.70
2018-04-07T20:14:59.979Z,17.60
2018-04-07T20:17:27.435Z,17.40
2018-04-07T20:19:55.145Z,17.30
2018-04-07T20:22:24.133Z,17.10
2018-04-07T20:24:51.907Z,17.10
2018-04-07T20:27:20.870Z,16.90
2018-04-07T20:29:48.335Z,16.90
2018-04-07T20:32:15.803Z,16.90
2018-04-07T20:34:43.264Z,16.80
2018-04-07T20:37:10.729Z,16.70
2018-04-07T20:39:38.191Z,16.60
2018-04-07T20:42:17.317Z,16.60
2018-04-07T20:44:44.784Z,16.50
2018-04-07T20:47:12.272Z,16.30
2018-04-07T20:49:39.895Z,16.20
2018-04-07T20:52:08.301Z,16.20
2018-04-07T20:54:35.765Z,16.20
2018-04-07T20:57:03.248Z,16.20
2018-04-07T20:59:30.726Z,16.20
2018-04-07T21:01:58.192Z,16.20
2018-04-07T21:04:25.665Z,16.20
2018-04-07T21:06:53.160Z,16.20
2018-04-07T21:09:20.720Z,16.10
2018-04-07T21:11:49.124Z,15.90
2018-04-07T21:14:16.583Z,15.80
2018-04-07T21:16:44.103Z,15.80
2018-04-07T21:19:11.568Z,15.70
2018-04-07T21:21:39.037Z,15.80
2018-04-07T21:24:06.515Z,15.70
2018-04-07T21:26:34.028Z,15.80
2018-04-07T21:29:03.016Z,15.80
2018-04-07T21:31:30.692Z,15.80
2018-04-07T21:33:58.148Z,15.80
2018-04-07T21:36:25.612Z,15.80
2018-04-07T21:38:53.156Z,15.80
2018-04-07T21:41:20.640Z,15.70
2018-04-07T21:43:48.311Z,15.70
2018-04-07T21:46:15.845Z,15.60
2018-04-07T21:48:44.083Z,15.50
2018-04-07T21:51:11.676Z,15.50
2018-04-07T21:53:39.443Z,15.40
2018-04-07T21:56:06.901Z,15.30
2018-04-07T21:58:34.663Z,15.20
2018-04-07T22:01:02.431Z,15.20
2018-04-07T22:03:29.898Z,15.20
2018-04-07T22:05:57.364Z,15.10
2018-04-07T22:08:25.031Z,15.00
2018-04-07T22:10:52.496Z,15.00
2018-04-07T22:13:20.182Z,14.90
2018-04-07T22:15:47.793Z,14.80
2018-04-07T22:18:15.248Z,14.70
2018-04-07T22:20:42.808Z,14.70
2018-04-07T22:23:10.479Z,14.70
2018-04-07T22:25:38.316Z,14.60
2018-04-07T22:28:06.012Z,14.70
2018-04-07T22:30:33.649Z,14.70
2018-04-07T22:33:01.117Z,14.70
2018-04-07T22:35:28.584Z,14.70
2018-04-07T22:37:56.051Z,14.60
2018-04-07T22:40:23.520Z,14.50
2018-04-07T22:42:50.984Z,14.40
2018-04-07T22:45:18.516Z,14.40
2018-04-07T22:47:45.998Z,14.40
2018-04-07T22:50:13.584Z,14.30
2018-04-07T22:52:41.056Z,14.30
2018-04-07T22:55:08.655Z,14.20
2018-04-07T22:57:36.120Z,14.10
2018-04-07T23:00:03.584Z,13.90
2018-04-07T23:02:31.336Z,13.90
2018-04-07T23:04:58.805Z,13.80
2018-04-07T23:07:26.276Z,13.90
2018-04-07T23:09:53.763Z,13.80
2018-04-07T23:12:21.228Z,13.80
2018-04-07T23:14:48.932Z,13.70
2018-04-07T23:17:16.808Z,13.70
2018-04-07T23:19:44.379Z,13.70
2018-04-07T23:22:11.853Z,13.50
2018-04-07T23:24:39.380Z,13.50
2018-04-07T23:27:06.853Z,13.40
2018-04-07T23:29:34.307Z,13.30
2018-04-07T23:32:02.068Z,13.30
2018-04-07T23:34:29.834Z,13.30
2018-04-07T23:36:57.293Z,13.30
2018-04-07T23:39:24.974Z,13.20
2018-04-07T23:41:52.576Z,13.30
2018-04-07T23:44:20.276Z,13.30
2018-04-07T23:46:48.035Z,13.30
2018-04-07T23:49:15.496Z,13.30
2018-04-07T23:51:42.956Z,13.20
2018-04-07T23:54:10.596Z,13.10
2018-04-07T23:56:38.184Z,13.10
2018-04-07T23:59:05.652Z,13.10
